createdAt,value
2019-03-08T00:02:33.023Z,87.50
2019-03-08T00:05:36.871Z,85.83
2019-03-08T00:08:40.436Z,87.03
2019-03-08T00:11:44.283Z,81.70
2019-03-08T00:14:47.854Z,88.03
2019-03-08T00:17:51.414Z,76.87
2019-03-08T00:20:55.141Z,75.37
2019-03-08T00:23:59.338Z,77.23
2019-03-08T00:27:02.911Z,72.50
2019-03-08T00:30:07.486Z,71.93
2019-03-08T00:33:11.062Z,68.63
2019-03-08T00:36:14.970Z,63.33
2019-03-08T00:39:19.088Z,69.73
2019-03-08T00:42:22.671Z,61.80
2019-03-08T00:45:26.244Z,66.93
2019-03-08T00:48:29.808Z,58.93
2019-03-08T00:51:33.378Z,55.47
2019-03-08T00:54:36.973Z,52.10
2019-03-08T00:57:40.541Z,48.80
2019-03-08T01:00:46.108Z,53.90
2019-03-08T01:03:49.690Z,51.13
2019-03-08T01:06:53.264Z,50.27
2019-03-08T01:09:57.270Z,44.27
2019-03-08T01:13:01.107Z,42.13
2019-03-08T01:16:04.703Z,43.37
2019-03-08T01:19:08.274Z,41.60
2019-03-08T01:22:11.923Z,40.77
2019-03-08T01:25:16.169Z,37.97
2019-03-08T01:28:20.059Z,37.83
2019-03-08T01:31:24.240Z,36.00
2019-03-08T01:34:28.078Z,36.97
2019-03-08T01:37:32.168Z,36.33
2019-03-08T01:40:35.770Z,32.10
2019-03-08T01:43:39.341Z,31.47
2019-03-08T01:46:42.918Z,29.93
2019-03-08T01:49:46.485Z,31.70
2019-03-08T01:52:50.060Z,31.93
2019-03-08T01:55:53.633Z,27.60
2019-03-08T01:58:57.531Z,26.30
2019-03-08T02:02:01.498Z,25.83
2019-03-08T02:05:05.532Z,26.10
2019-03-08T02:08:09.378Z,25.50
2019-03-08T02:11:13.247Z,24.50
2019-03-08T02:14:16.830Z,21.23
2019-03-08T02:17:21.026Z,24.63
2019-03-08T02:20:24.771Z,22.97
2019-03-08T02:23:28.413Z,25.07
2019-03-08T02:26:32.123Z,20.83
2019-03-08T02:29:35.680Z,20.20
2019-03-08T02:32:39.589Z,18.00
2019-03-08T02:35:43.495Z,19.10
2019-03-08T02:38:47.094Z,18.77
2019-03-08T02:41:51.027Z,19.43
2019-03-08T02:44:54.931Z,17.10
2019-03-08T02:47:58.521Z,17.40
2019-03-08T02:51:02.104Z,16.87
2019-03-08T02:54:05.780Z,16.97
2019-03-08T02:57:09.404Z,18.83
2019-03-08T03:00:13.577Z,15.70
2019-03-08T03:03:17.882Z,14.27
2019-03-08T03:06:21.468Z,15.27
2019-03-08T03:09:25.056Z,14.00
2019-03-08T03:12:28.641Z,17.50
2019-03-08T03:15:32.523Z,13.10
2019-03-08T03:18:36.100Z,12.20
2019-03-08T03:21:39.685Z,14.53
2019-03-08T03:24:43.631Z,13.03
2019-03-08T03:27:47.178Z,12.20
2019-03-08T03:30:51.365Z,12.53
2019-03-08T03:33:54.951Z,12.87
2019-03-08T03:36:58.852Z,10.83
2019-03-08T03:40:02.449Z,10.00
2019-03-08T03:43:06.116Z,10.57
2019-03-08T03:46:09.696Z,11.43
2019-03-08T03:49:13.285Z,9.50
2019-03-08T03:52:16.854Z,9.00
2019-03-08T03:55:20.810Z,8.10
2019-03-08T03:58:24.476Z,9.93
2019-03-08T04:01:35.501Z,9.13
2019-03-08T04:04:39.591Z,7.17
2019-03-08T04:07:43.188Z,8.00
2019-03-08T04:10:46.757Z,8.37
2019-03-08T04:13:51.038Z,7.97
2019-03-08T04:16:54.882Z,7.90
2019-03-08T04:19:58.465Z,5.47
2019-03-08T04:23:02.035Z,7.50
2019-03-08T04:26:05.741Z,7.23
2019-03-08T04:29:09.330Z,7.70
2019-03-08T04:32:13.176Z,5.83
2019-03-08T04:35:17.087Z,6.97
2019-03-08T04:38:20.819Z,6.07
2019-03-08T04:41:24.707Z,5.40
2019-03-08T04:44:28.923Z,6.17
2019-03-08T04:47:32.501Z,4.83
2019-03-08T04:50:36.335Z,5.87
2019-03-08T04:53:39.918Z,6.43
2019-03-08T04:56:43.486Z,5.13
2019-03-08T04:59:49.049Z,6.53
2019-03-08T05:02:53.209Z,5.80
2019-03-08T05:05:57.131Z,10.03
2019-03-08T05:09:00.792Z,5.33
2019-03-08T05:12:05.251Z,9.27
2019-03-08T05:15:09.374Z,5.63
2019-03-08T05:18:13.282Z,5.53
2019-03-08T05:21:17.042Z,5.30
2019-03-08T05:24:20.884Z,177.77
2019-03-08T05:27:24.813Z,42.13
2019-03-08T05:30:28.474Z,92.30
2019-03-08T05:33:32.329Z,78.77
2019-03-08T05:36:36.247Z,67.70
2019-03-08T05:39:40.135Z,267.50
2019-03-08T05:42:44.356Z,145.03
2019-03-08T05:45:48.262Z,168.73
2019-03-08T05:48:51.867Z,387.33
2019-03-08T05:51:55.898Z,305.33
2019-03-08T05:54:59.482Z,296.63
2019-03-08T05:58:03.082Z,269.97
2019-03-08T06:01:07.006Z,218.37
2019-03-08T06:04:10.601Z,172.83
2019-03-08T06:07:14.204Z,177.70
2019-03-08T06:10:36.409Z,152.83
2019-03-08T06:13:40.261Z,146.43
2019-03-08T06:16:43.855Z,143.03
2019-03-08T06:19:47.452Z,130.67
2019-03-08T06:22:51.393Z,117.33
2019-03-08T06:25:55.311Z,112.63
2019-03-08T06:28:59.214Z,110.13
2019-03-08T06:32:02.800Z,100.13
2019-03-08T06:35:07.488Z,102.23
2019-03-08T06:38:11.045Z,90.93
2019-03-08T06:41:14.636Z,90.50
2019-03-08T06:44:18.218Z,90.87
2019-03-08T06:47:21.808Z,85.77
2019-03-08T06:50:25.445Z,84.83
2019-03-08T06:53:29.025Z,86.00
2019-03-08T06:56:32.604Z,76.70
2019-03-08T06:59:42.865Z,76.70
2019-03-08T07:02:46.448Z,80.73
2019-03-08T07:05:50.356Z,77.80
2019-03-08T07:08:53.948Z,68.63
2019-03-08T07:11:57.531Z,68.03
2019-03-08T07:15:01.140Z,66.57
2019-03-08T07:18:12.091Z,67.60
2019-03-08T07:21:15.870Z,62.57
2019-03-08T07:24:25.851Z,62.63
2019-03-08T07:27:48.047Z,65.13
2019-03-08T07:31:09.877Z,60.87
2019-03-08T07:34:38.758Z,61.40
2019-03-08T07:38:07.776Z,56.73
2019-03-08T07:41:29.961Z,55.90
2019-03-08T07:44:52.873Z,53.03
2019-03-08T07:48:14.030Z,47.90
2019-03-08T07:51:42.235Z,49.40
2019-03-08T07:54:53.908Z,52.50
2019-03-08T07:58:29.208Z,46.87
2019-03-08T08:01:46.787Z,44.93
2019-03-08T08:05:21.858Z,45.97
2019-03-08T08:08:40.376Z,43.47
2019-03-08T08:11:55.871Z,46.23
2019-03-08T08:15:17.769Z,44.50
2019-03-08T08:18:37.065Z,43.40
2019-03-08T08:22:05.570Z,44.47
2019-03-08T08:25:17.537Z,39.50
2019-03-08T08:28:39.592Z,40.97
2019-03-08T08:32:20.864Z,40.17
2019-03-08T08:35:49.136Z,39.70
2019-03-08T08:39:02.084Z,37.97
2019-03-08T08:42:23.842Z,36.47
2019-03-08T08:45:43.397Z,38.03
2019-03-08T08:49:03.987Z,37.83
2019-03-08T08:52:26.621Z,35.47
2019-03-08T08:55:48.013Z,33.73
2019-03-08T08:59:13.436Z,33.67
2019-03-08T09:02:23.135Z,37.20
2019-03-08T09:05:45.751Z,31.13
2019-03-08T09:09:08.381Z,34.67
2019-03-08T09:12:21.460Z,30.93
2019-03-08T09:15:28.750Z,30.03
2019-03-08T09:18:46.288Z,30.30
2019-03-08T09:22:02.433Z,27.20
2019-03-08T09:25:25.529Z,29.33
2019-03-08T09:28:47.352Z,29.37
2019-03-08T09:32:03.779Z,26.63
2019-03-08T09:35:29.499Z,26.90
2019-03-08T09:38:52.128Z,26.47
2019-03-08T09:42:15.011Z,24.97
2019-03-08T09:45:29.869Z,23.30
2019-03-08T09:49:07.516Z,24.07
2019-03-08T09:52:27.922Z,25.17
2019-03-08T09:55:38.135Z,23.43
2019-03-08T09:59:00.767Z,25.37
2019-03-08T10:02:14.424Z,23.23
2019-03-08T10:05:34.931Z,23.80
2019-03-08T10:08:57.878Z,24.03
2019-03-08T10:12:32.486Z,21.57
2019-03-08T10:15:39.613Z,19.77
2019-03-08T10:19:01.231Z,20.97
2019-03-08T10:22:13.639Z,20.87
2019-03-08T10:25:39.725Z,20.30
2019-03-08T10:29:02.272Z,22.53
2019-03-08T10:32:23.121Z,21.07
2019-03-08T10:35:45.803Z,21.60
2019-03-08T10:38:57.267Z,20.00
2019-03-08T10:42:11.578Z,20.03
2019-03-08T10:45:22.671Z,21.17
2019-03-08T10:48:44.597Z,19.80
2019-03-08T10:52:06.648Z,18.77
2019-03-08T10:55:25.947Z,17.33
2019-03-08T10:58:56.886Z,17.43
2019-03-08T11:02:17.241Z,15.60
2019-03-08T11:05:28.066Z,19.27
2019-03-08T11:08:49.656Z,16.30
2019-03-08T11:12:07.938Z,17.87
2019-03-08T11:15:24.381Z,17.30
2019-03-08T11:18:39.374Z,17.87
2019-03-08T11:22:04.798Z,17.57
2019-03-08T11:25:35.249Z,16.33
2019-03-08T11:28:48.480Z,17.10
2019-03-08T11:32:09.975Z,16.07
2019-03-08T11:35:26.267Z,16.83
2019-03-08T11:38:38.930Z,14.87
2019-03-08T11:42:03.730Z,13.10
2019-03-08T11:45:26.227Z,15.80
2019-03-08T11:48:44.736Z,14.93
2019-03-08T11:51:59.455Z,17.37
2019-03-08T11:55:19.899Z,14.93
2019-03-08T11:58:42.516Z,12.47
2019-03-08T12:01:59.225Z,13.63
2019-03-08T12:05:13.618Z,12.40
2019-03-08T12:08:36.518Z,13.87
2019-03-08T12:11:58.055Z,14.83
2019-03-08T12:15:10.812Z,11.83
2019-03-08T12:18:26.508Z,10.70
2019-03-08T12:21:45.363Z,14.47
2019-03-08T12:25:01.749Z,12.30
2019-03-08T12:28:30.776Z,13.53
2019-03-08T12:31:40.018Z,13.57
2019-03-08T12:34:50.569Z,11.20
2019-03-08T12:38:31.721Z,14.03
2019-03-08T12:41:42.997Z,11.90
2019-03-08T12:45:01.283Z,13.73
2019-03-08T12:48:33.113Z,10.97
2019-03-08T12:51:47.956Z,11.53
2019-03-08T12:55:02.992Z,12.37
2019-03-08T12:58:35.009Z,11.57
2019-03-08T13:01:51.059Z,11.50
2019-03-08T13:05:09.826Z,11.50
2019-03-08T13:08:31.430Z,11.60
2019-03-08T13:11:35.020Z,11.83
2019-03-08T13:14:38.617Z,10.23
2019-03-08T13:17:42.612Z,11.07
2019-03-08T13:20:46.191Z,11.37
2019-03-08T13:23:50.142Z,11.17
2019-03-08T13:26:53.767Z,11.03
2019-03-08T13:29:57.612Z,10.97
2019-03-08T13:33:01.192Z,11.37
2019-03-08T13:36:05.482Z,12.20
2019-03-08T13:39:09.620Z,10.80
2019-03-08T13:42:13.503Z,10.93
2019-03-08T13:45:17.127Z,9.77
2019-03-08T13:48:20.714Z,10.20
2019-03-08T13:51:24.308Z,11.73
2019-03-08T13:54:28.073Z,11.00
2019-03-08T13:57:31.912Z,8.93
2019-03-08T14:00:35.855Z,10.10
2019-03-08T14:03:39.613Z,15.70
2019-03-08T14:06:43.468Z,9.63
2019-03-08T14:09:47.069Z,12.23
2019-03-08T14:12:50.985Z,8.83
2019-03-08T14:15:55.155Z,8.87
2019-03-08T14:18:59.135Z,8.97
2019-03-08T14:22:02.965Z,11.27
2019-03-08T14:25:06.632Z,10.80
2019-03-08T14:28:10.319Z,10.33
2019-03-08T14:31:19.380Z,199.83
2019-03-08T14:34:23.383Z,140.03
2019-03-08T14:37:27.435Z,91.27
2019-03-08T14:40:39.718Z,224.57
2019-03-08T14:43:52.527Z,224.93
2019-03-08T14:47:02.713Z,221.63
2019-03-08T14:50:08.228Z,196.37
2019-03-08T14:53:12.418Z,182.37
2019-03-08T14:56:16.348Z,159.60
2019-03-08T14:59:19.951Z,143.30
2019-03-08T15:02:23.981Z,138.63
2019-03-08T15:05:27.571Z,133.33
2019-03-08T15:08:31.167Z,115.33
2019-03-08T15:11:35.042Z,104.93
2019-03-08T15:14:39.326Z,96.80
2019-03-08T15:17:43.417Z,89.43
2019-03-08T15:20:47.068Z,75.67
2019-03-08T15:23:54.131Z,76.73
2019-03-08T15:26:56.338Z,70.77
2019-03-08T15:30:00.547Z,61.10
2019-03-08T15:33:04.425Z,62.50
2019-03-08T15:36:08.442Z,182.00
2019-03-08T15:39:12.866Z,43.30
2019-03-08T15:42:16.517Z,183.47
2019-03-08T15:45:20.695Z,180.37
2019-03-08T15:48:24.461Z,169.80
2019-03-08T15:51:28.612Z,144.30
2019-03-08T15:54:32.476Z,118.10
2019-03-08T15:57:36.336Z,111.93
2019-03-08T16:00:40.017Z,112.30
2019-03-08T16:03:43.863Z,96.80
2019-03-08T16:06:47.542Z,104.27
2019-03-08T16:09:51.133Z,96.80
2019-03-08T16:12:55.053Z,95.17
2019-03-08T16:15:58.982Z,85.63
2019-03-08T16:19:02.890Z,83.97
2019-03-08T16:22:08.600Z,86.73
2019-03-08T16:25:12.149Z,81.97
2019-03-08T16:28:15.746Z,79.30
2019-03-08T16:31:34.325Z,79.97
2019-03-08T16:34:37.802Z,72.07
2019-03-08T16:38:06.406Z,73.17
2019-03-08T16:41:21.627Z,67.73
2019-03-08T16:44:47.314Z,71.67
2019-03-08T16:48:24.643Z,68.03
2019-03-08T16:51:42.332Z,70.47
2019-03-08T16:54:52.641Z,65.83
2019-03-08T16:58:10.942Z,60.73
2019-03-08T17:01:32.512Z,60.90
2019-03-08T17:04:49.324Z,58.33
2019-03-08T17:07:59.165Z,58.73
2019-03-08T17:11:21.138Z,60.73
2019-03-08T17:14:43.037Z,57.27
2019-03-08T17:18:02.938Z,56.53
2019-03-08T17:21:29.781Z,55.90
2019-03-08T17:24:56.341Z,52.43
2019-03-08T17:28:21.224Z,47.77
2019-03-08T17:31:33.436Z,48.27
2019-03-08T17:34:54.752Z,50.93
2019-03-08T17:38:20.390Z,46.93
2019-03-08T17:41:38.734Z,43.23
2019-03-08T17:44:55.939Z,45.43
2019-03-08T17:48:05.707Z,42.33
2019-03-08T17:51:25.372Z,40.93
2019-03-08T17:54:41.422Z,38.87
2019-03-08T17:58:02.712Z,41.23
2019-03-08T18:01:25.695Z,41.73
2019-03-08T18:04:46.932Z,37.47
2019-03-08T18:08:18.997Z,40.17
2019-03-08T18:11:40.758Z,35.97
2019-03-08T18:14:56.883Z,37.70
2019-03-08T18:18:19.791Z,36.80
2019-03-08T18:21:45.221Z,39.73
2019-03-08T18:25:01.552Z,47.17
2019-03-08T18:28:17.942Z,46.77
2019-03-08T18:31:40.944Z,41.77
2019-03-08T18:34:59.969Z,40.97
2019-03-08T18:38:19.871Z,37.90
2019-03-08T18:41:45.480Z,35.80
2019-03-08T18:45:08.126Z,38.93
2019-03-08T18:48:18.299Z,35.00
2019-03-08T18:51:33.477Z,30.23
2019-03-08T18:54:55.028Z,32.73
2019-03-08T18:58:10.113Z,31.33
2019-03-08T19:01:30.654Z,33.00
2019-03-08T19:04:56.436Z,31.73
2019-03-08T19:08:22.004Z,28.90
2019-03-08T19:11:41.939Z,32.63
2019-03-08T19:15:04.436Z,26.20
2019-03-08T19:18:15.000Z,26.40
2019-03-08T19:21:39.601Z,35.87
2019-03-08T19:24:53.563Z,29.00
2019-03-08T19:28:05.194Z,26.50
2019-03-08T19:31:27.480Z,27.47
2019-03-08T19:34:42.662Z,28.07
2019-03-08T19:38:08.422Z,24.87
2019-03-08T19:41:40.143Z,27.20
2019-03-08T19:44:54.296Z,26.47
2019-03-08T19:48:12.933Z,29.53
2019-03-08T19:51:25.039Z,27.67
2019-03-08T19:54:46.950Z,24.20
2019-03-08T19:58:15.919Z,24.30
2019-03-08T20:01:38.004Z,24.73
2019-03-08T20:05:10.338Z,21.50
2019-03-08T20:08:33.137Z,26.77
2019-03-08T20:11:58.865Z,21.20
2019-03-08T20:15:20.571Z,20.33
2019-03-08T20:18:49.666Z,24.83
2019-03-08T20:22:07.977Z,23.70
2019-03-08T20:25:20.012Z,25.07
2019-03-08T20:28:51.725Z,20.63
2019-03-08T20:32:12.737Z,35.67
2019-03-08T20:35:33.032Z,41.27
2019-03-08T20:38:52.808Z,28.53
2019-03-08T20:42:21.614Z,26.23
2019-03-08T20:45:35.457Z,37.10
2019-03-08T20:48:39.420Z,48.50
2019-03-08T20:51:43.201Z,30.77
2019-03-08T20:54:46.796Z,32.03
2019-03-08T20:57:50.403Z,36.50
2019-03-08T21:00:54.342Z,24.77
2019-03-08T21:03:58.364Z,28.27
2019-03-08T21:07:01.955Z,28.07
2019-03-08T21:10:06.192Z,45.03
2019-03-08T21:13:09.885Z,36.93
2019-03-08T21:16:13.601Z,28.80
2019-03-08T21:19:17.289Z,31.27
2019-03-08T21:22:21.030Z,30.90
2019-03-08T21:25:25.108Z,28.70
2019-03-08T21:28:28.810Z,28.53
2019-03-08T21:31:33.156Z,33.57
2019-03-08T21:34:37.283Z,34.73
2019-03-08T21:37:40.953Z,32.70
2019-03-08T21:40:45.098Z,28.87
2019-03-08T21:43:49.009Z,34.77
2019-03-08T21:46:53.021Z,26.20
2019-03-08T21:49:57.041Z,29.93
2019-03-08T21:53:00.647Z,27.53
2019-03-08T21:56:04.641Z,32.40
2019-03-08T21:59:08.333Z,31.60
2019-03-08T22:02:12.033Z,21.40
2019-03-08T22:05:18.244Z,24.90
2019-03-08T22:08:21.910Z,67.17
2019-03-08T22:11:32.566Z,52.37
2019-03-08T22:14:37.046Z,45.60
2019-03-08T22:17:40.656Z,52.07
2019-03-08T22:20:44.407Z,42.90
2019-03-08T22:23:48.107Z,45.10
2019-03-08T22:26:51.915Z,44.93
2019-03-08T22:29:57.017Z,37.37
2019-03-08T22:33:00.637Z,39.50
2019-03-08T22:36:04.295Z,38.30
2019-03-08T22:39:08.238Z,31.23
2019-03-08T22:42:11.887Z,34.53
2019-03-08T22:45:15.925Z,33.93
2019-03-08T22:48:19.517Z,23.40
2019-03-08T22:51:23.218Z,27.23
2019-03-08T22:54:27.179Z,25.23
2019-03-08T22:57:30.773Z,25.80
2019-03-08T23:01:01.219Z,24.50
2019-03-08T23:04:04.891Z,31.50
2019-03-08T23:07:08.516Z,24.90
2019-03-08T23:10:12.745Z,27.23
2019-03-08T23:13:16.770Z,24.27
2019-03-08T23:16:20.964Z,27.17
2019-03-08T23:19:24.867Z,23.37
2019-03-08T23:22:28.451Z,24.00
2019-03-08T23:25:32.040Z,29.10
2019-03-08T23:28:51.256Z,24.17
2019-03-08T23:32:13.866Z,28.10
2019-03-08T23:35:17.480Z,30.47
2019-03-08T23:38:21.067Z,30.03
2019-03-08T23:41:25.226Z,31.70
2019-03-08T23:44:28.817Z,25.03
2019-03-08T23:47:32.396Z,36.00
2019-03-08T23:50:35.987Z,21.73
2019-03-08T23:53:39.573Z,26.03
2019-03-08T23:56:43.557Z,29.70
2019-03-08T23:59:47.145Z,17.57
